Terminal Aerodrome Forecast
Issued by NWS

Home | Current Version | Previous Version | Text Only | Print | Product List | Glossary On
Versions: 1 2 3 4 5 6 7 8 9 10 11 12 13 14 15 16 17
000
FTUS46 KLOX 242342
TAFWJF
TAF
KWJF 242342Z 2500/2524 23020G28KT P6SM SKC
     FM250300 23015G20KT P6SM SKC
     FM251200 23018G23KT P6SM SKC
     FM252000 23024G32KT P6SM SKC=

USA.gov is the U.S. government's official web portal to all federal, state and local government web resources and services.